createdAt,value
2023-02-08T00:01:23.952Z,101479.44
2023-02-08T00:03:53.004Z,101488.69
2023-02-08T00:06:21.023Z,101482.06
2023-02-08T00:08:48.972Z,101491.03
2023-02-08T00:11:17.349Z,101492.06
2023-02-08T00:13:45.365Z,101497.87
2023-02-08T00:16:14.791Z,101495.91
2023-02-08T00:18:43.190Z,101498.00
2023-02-08T00:21:13.950Z,101499.34
2023-02-08T00:23:42.686Z,101500.19
2023-02-08T00:26:11.113Z,101503.56
2023-02-08T00:28:39.450Z,101500.50
2023-02-08T00:31:07.814Z,101491.19
2023-02-08T00:33:36.002Z,101507.22
2023-02-08T00:36:06.337Z,101506.91
2023-02-08T00:38:35.336Z,101505.53
2023-02-08T00:41:03.719Z,101503.53
2023-02-08T00:43:31.772Z,101503.53
2023-02-08T00:46:00.771Z,101494.94
2023-02-08T00:48:29.118Z,101501.97
2023-02-08T00:51:06.809Z,101511.34
2023-02-08T00:53:40.836Z,101512.47
2023-02-08T00:56:10.172Z,101514.87
2023-02-08T00:58:39.078Z,101511.44
2023-02-08T01:01:08.011Z,101511.75
2023-02-08T01:03:37.449Z,101507.13
2023-02-08T01:06:08.355Z,101513.88
2023-02-08T01:08:36.601Z,101511.37
2023-02-08T01:11:14.806Z,101511.44
2023-02-08T01:13:43.104Z,101506.84
2023-02-08T01:16:15.103Z,101504.44
2023-02-08T01:18:45.318Z,101501.13
2023-02-08T01:21:15.816Z,101505.53
2023-02-08T01:23:45.158Z,101504.00
2023-02-08T01:26:14.353Z,101501.31
2023-02-08T01:28:42.888Z,101502.84
2023-02-08T01:31:15.668Z,101497.66
2023-02-08T01:33:43.686Z,101492.13
2023-02-08T01:36:12.580Z,101491.56
2023-02-08T01:38:43.130Z,101497.03
2023-02-08T01:41:20.095Z,101506.94
2023-02-08T01:44:01.569Z,101504.87
2023-02-08T01:46:33.965Z,101508.56
2023-02-08T01:49:29.398Z,101505.59
2023-02-08T01:52:10.828Z,101506.25
2023-02-08T01:54:43.268Z,101501.78
2023-02-08T01:57:12.163Z,101505.66
2023-02-08T01:59:44.864Z,101503.94
2023-02-08T02:02:15.529Z,101504.50
2023-02-08T02:04:44.434Z,101510.84
2023-02-08T02:07:13.104Z,101503.97
2023-02-08T02:09:59.472Z,101507.38
2023-02-08T02:12:28.519Z,101501.44
2023-02-08T02:14:56.613Z,101505.88
2023-02-08T02:17:24.948Z,101499.62
2023-02-08T02:20:18.927Z,101505.66
2023-02-08T02:23:11.770Z,101500.44
2023-02-08T02:26:17.170Z,101508.22
2023-02-08T02:29:16.432Z,101495.06
2023-02-08T02:32:06.209Z,101492.59
2023-02-08T02:34:54.085Z,101493.97
2023-02-08T02:37:40.250Z,101493.47
2023-02-08T02:40:14.182Z,101493.88
2023-02-08T02:43:07.627Z,101498.34
2023-02-08T02:45:45.688Z,101499.97
2023-02-08T02:48:15.183Z,101497.53
2023-02-08T02:50:55.527Z,101497.44
2023-02-08T02:53:38.296Z,101500.81
2023-02-08T02:56:11.241Z,101507.66
2023-02-08T02:58:40.534Z,101512.19
2023-02-08T03:01:08.909Z,101510.44
2023-02-08T03:03:36.908Z,101515.97
2023-02-08T03:06:12.949Z,101517.47
2023-02-08T03:09:09.169Z,101513.94
2023-02-08T03:11:37.552Z,101518.75
2023-02-08T03:14:43.179Z,101526.75
2023-02-08T03:17:46.189Z,101525.19
2023-02-08T03:20:19.093Z,101531.81
2023-02-08T03:23:10.403Z,101537.59
2023-02-08T03:25:52.229Z,101539.41
2023-02-08T03:28:31.237Z,101547.34
2023-02-08T03:31:07.867Z,101548.34
2023-02-08T03:33:48.400Z,101554.34
2023-02-08T03:36:59.994Z,101548.66
2023-02-08T03:39:29.339Z,101544.91
2023-02-08T03:42:00.783Z,101546.75
2023-02-08T03:44:35.779Z,101541.66
2023-02-08T03:47:07.000Z,101548.69
2023-02-08T03:49:36.853Z,101546.47
2023-02-08T03:52:07.407Z,101552.34
2023-02-08T03:54:54.490Z,101564.53
2023-02-08T03:57:35.642Z,101558.81
2023-02-08T04:00:10.149Z,101564.47
2023-02-08T04:02:45.508Z,101565.09
2023-02-08T04:05:14.224Z,101557.97
2023-02-08T04:07:42.196Z,101555.84
2023-02-08T04:10:10.252Z,101552.78
2023-02-08T04:12:38.654Z,101548.63
2023-02-08T04:15:07.003Z,101551.94
2023-02-08T04:17:34.955Z,101548.00
2023-02-08T04:20:03.366Z,101556.09
2023-02-08T04:22:31.344Z,101552.66
2023-02-08T04:24:59.708Z,101553.91
2023-02-08T04:27:27.942Z,101553.13
2023-02-08T04:29:55.845Z,101545.03
2023-02-08T04:32:23.748Z,101556.38
2023-02-08T04:34:52.065Z,101562.72
2023-02-08T04:37:20.086Z,101560.13
2023-02-08T04:39:48.066Z,101549.25
2023-02-08T04:42:16.687Z,101546.00
2023-02-08T04:44:44.692Z,101550.47
2023-02-08T04:47:12.600Z,101539.72
2023-02-08T04:49:40.861Z,101545.00
2023-02-08T04:52:08.750Z,101554.59
2023-02-08T04:54:36.653Z,101552.94
2023-02-08T04:57:05.026Z,101561.41
2023-02-08T04:59:32.916Z,101558.84
2023-02-08T05:02:00.787Z,101553.50
2023-02-08T05:04:30.875Z,101554.41
2023-02-08T05:06:59.070Z,101546.78
2023-02-08T05:09:27.050Z,101554.50
2023-02-08T05:11:55.277Z,101555.75
2023-02-08T05:14:23.340Z,101560.78
2023-02-08T05:16:51.298Z,101558.25
2023-02-08T05:19:19.507Z,101564.09
2023-02-08T05:21:47.538Z,101566.03
2023-02-08T05:24:15.586Z,101571.25
2023-02-08T05:26:43.895Z,101571.66
2023-02-08T05:29:11.799Z,101580.25
2023-02-08T05:31:39.891Z,101579.66
2023-02-08T05:34:08.274Z,101581.53
2023-02-08T05:36:36.272Z,101582.63
2023-02-08T05:39:04.831Z,101580.25
2023-02-08T05:41:33.403Z,101577.97
2023-02-08T05:44:01.313Z,101576.59
2023-02-08T05:46:29.406Z,101569.28
2023-02-08T05:48:57.920Z,101574.53
2023-02-08T05:51:25.867Z,101572.72
2023-02-08T05:53:53.849Z,101573.06
2023-02-08T05:56:22.138Z,101584.88
2023-02-08T05:58:50.158Z,101570.69
2023-02-08T06:01:18.434Z,101570.84
2023-02-08T06:03:46.790Z,101562.63
2023-02-08T06:06:14.710Z,101569.44
2023-02-08T06:08:42.796Z,101573.22
2023-02-08T06:11:11.086Z,101590.00
2023-02-08T06:13:41.998Z,101591.44
2023-02-08T06:16:10.384Z,101599.25
2023-02-08T06:18:38.547Z,101604.19
2023-02-08T06:21:06.833Z,101596.91
2023-02-08T06:23:35.188Z,101597.88
2023-02-08T06:26:03.161Z,101601.66
2023-02-08T06:28:31.180Z,101610.75
2023-02-08T06:30:59.794Z,101612.22
2023-02-08T06:33:27.842Z,101613.56
2023-02-08T06:35:55.894Z,101609.19
2023-02-08T06:38:24.282Z,101614.25
2023-02-08T06:40:52.308Z,101605.38
2023-02-08T06:43:20.501Z,101609.47
2023-02-08T06:45:49.062Z,101611.75
2023-02-08T06:48:17.152Z,101611.75
2023-02-08T06:50:45.125Z,101617.56
2023-02-08T06:53:13.533Z,101623.59
2023-02-08T06:55:41.504Z,101623.75
2023-02-08T06:58:10.035Z,101616.25
2023-02-08T07:00:39.582Z,101626.47
2023-02-08T07:03:07.728Z,101629.19
2023-02-08T07:05:36.206Z,101625.47
2023-02-08T07:08:05.409Z,101636.28
2023-02-08T07:10:33.995Z,101632.00
2023-02-08T07:13:04.913Z,101629.97
2023-02-08T07:15:33.406Z,101627.19
2023-02-08T07:18:01.651Z,101641.75
2023-02-08T07:20:30.327Z,101635.59
2023-02-08T07:22:59.616Z,101637.44
2023-02-08T07:25:27.593Z,101645.31
2023-02-08T07:27:55.608Z,101645.22
2023-02-08T07:30:23.898Z,101644.97
2023-02-08T07:32:51.887Z,101653.22
2023-02-08T07:35:19.817Z,101648.66
2023-02-08T07:37:48.185Z,101653.78
2023-02-08T07:40:16.224Z,101660.56
2023-02-08T07:42:44.220Z,101654.63
2023-02-08T07:45:13.051Z,101659.38
2023-02-08T07:47:41.192Z,101661.72
2023-02-08T07:50:09.608Z,101657.88
2023-02-08T07:52:37.963Z,101658.19
2023-02-08T07:55:06.196Z,101660.97
2023-02-08T07:57:34.197Z,101664.69
2023-02-08T08:00:02.850Z,101662.56
2023-02-08T08:02:39.981Z,101668.66
2023-02-08T08:05:09.270Z,101671.50
2023-02-08T08:07:37.635Z,101681.63
2023-02-08T08:10:05.960Z,101673.72
2023-02-08T08:12:34.301Z,101681.63
2023-02-08T08:15:02.223Z,101683.06
2023-02-08T08:17:30.410Z,101685.13
2023-02-08T08:19:58.789Z,101694.94
2023-02-08T08:22:28.944Z,101688.88
2023-02-08T08:24:58.498Z,101690.66
2023-02-08T08:27:26.811Z,101689.19
2023-02-08T08:29:54.912Z,101688.56
2023-02-08T08:32:23.275Z,101695.78
2023-02-08T08:34:51.820Z,101693.69
2023-02-08T08:37:19.668Z,101700.28
2023-02-08T08:39:49.250Z,101694.16
2023-02-08T08:42:17.851Z,101698.59
2023-02-08T08:44:45.867Z,101694.75
2023-02-08T08:47:14.007Z,101702.16
2023-02-08T08:49:43.977Z,101699.03
2023-02-08T08:52:12.778Z,101695.06
2023-02-08T08:54:42.299Z,101710.59
2023-02-08T08:57:10.568Z,101705.59
2023-02-08T08:59:38.536Z,101705.44
2023-02-08T09:02:06.761Z,101704.37
2023-02-08T09:04:35.101Z,101703.78
2023-02-08T09:07:03.118Z,101707.97
2023-02-08T09:09:31.067Z,101713.28
2023-02-08T09:11:59.366Z,101737.09
2023-02-08T09:14:29.321Z,101718.31
2023-02-08T09:16:57.280Z,101709.31
2023-02-08T09:19:25.686Z,101722.06
2023-02-08T09:21:53.729Z,101725.94
2023-02-08T09:24:21.821Z,101730.50
2023-02-08T09:26:50.346Z,101737.00
2023-02-08T09:29:18.500Z,101740.97
2023-02-08T09:31:46.636Z,101731.63
2023-02-08T09:34:15.122Z,101732.94
2023-02-08T09:36:44.279Z,101730.03
2023-02-08T09:39:16.355Z,101743.41
2023-02-08T09:42:03.491Z,101723.88
2023-02-08T09:45:16.093Z,101740.34
2023-02-08T09:47:59.508Z,101732.59
2023-02-08T09:50:34.358Z,101733.12
2023-02-08T09:53:34.506Z,101732.31
2023-02-08T09:56:07.237Z,101737.16
2023-02-08T09:58:43.692Z,101740.91
2023-02-08T10:01:24.163Z,101733.12
2023-02-08T10:03:57.296Z,101735.50
2023-02-08T10:06:25.502Z,101744.16
2023-02-08T10:08:54.577Z,101738.22
2023-02-08T10:11:40.685Z,101737.03
2023-02-08T10:14:44.702Z,101731.94
2023-02-08T10:17:25.517Z,101724.22
2023-02-08T10:20:26.427Z,101734.78
2023-02-08T10:23:49.698Z,101737.50
2023-02-08T10:26:35.386Z,101729.22
2023-02-08T10:29:24.915Z,101729.53
2023-02-08T10:31:59.571Z,101727.97
2023-02-08T10:34:34.530Z,101725.75
2023-02-08T10:37:17.878Z,101725.13
2023-02-08T10:39:48.393Z,101729.13
2023-02-08T10:42:19.607Z,101724.53
2023-02-08T10:44:59.486Z,101725.06
2023-02-08T10:47:36.600Z,101727.66
2023-02-08T10:50:21.877Z,101714.41
2023-02-08T10:52:50.329Z,101720.53
2023-02-08T10:55:21.536Z,101726.88
2023-02-08T10:57:52.657Z,101723.03
2023-02-08T11:00:30.370Z,101718.72
2023-02-08T11:03:03.435Z,101724.25
2023-02-08T11:05:35.813Z,101723.94
2023-02-08T11:08:23.459Z,101723.81
2023-02-08T11:11:04.661Z,101727.78
2023-02-08T11:13:40.902Z,101724.66
2023-02-08T11:16:14.726Z,101731.25
2023-02-08T11:18:52.481Z,101727.00
2023-02-08T11:21:26.573Z,101732.47
2023-02-08T11:23:56.282Z,101728.37
2023-02-08T11:26:37.757Z,101732.13
2023-02-08T11:29:18.393Z,101723.50
2023-02-08T11:32:03.834Z,101731.78
2023-02-08T11:34:39.010Z,101714.94
2023-02-08T11:37:26.814Z,101727.50
2023-02-08T11:40:00.575Z,101718.22
2023-02-08T11:42:36.660Z,101711.91
2023-02-08T11:45:05.603Z,101719.72
2023-02-08T11:47:35.994Z,101708.72
2023-02-08T11:50:09.093Z,101712.34
2023-02-08T11:52:39.562Z,101702.66
2023-02-08T11:55:23.435Z,101706.28
2023-02-08T11:58:19.617Z,101702.16
2023-02-08T12:01:01.128Z,101707.78
2023-02-08T12:03:35.358Z,101691.75
2023-02-08T12:06:22.905Z,101700.34
2023-02-08T12:08:57.290Z,101702.41
2023-02-08T12:11:47.026Z,101708.37
2023-02-08T12:14:49.087Z,101691.44
2023-02-08T12:17:42.744Z,101691.25
2023-02-08T12:20:18.431Z,101689.44
2023-02-08T12:22:56.262Z,101688.75
2023-02-08T12:25:41.599Z,101689.03
2023-02-08T12:28:56.741Z,101686.66
2023-02-08T12:31:41.745Z,101698.09
2023-02-08T12:34:34.350Z,101706.94
2023-02-08T12:37:22.464Z,101692.78
2023-02-08T12:40:34.484Z,101699.44
2023-02-08T12:43:27.915Z,101702.56
2023-02-08T12:46:12.393Z,101696.66
2023-02-08T12:48:59.486Z,101697.25
2023-02-08T12:51:48.801Z,101694.00
2023-02-08T12:54:23.400Z,101692.69
2023-02-08T12:57:01.658Z,101685.56
2023-02-08T12:59:44.052Z,101688.50
2023-02-08T13:02:20.124Z,101686.88
2023-02-08T13:04:50.234Z,101681.72
2023-02-08T13:07:32.170Z,101679.75
2023-02-08T13:10:08.697Z,101686.84
2023-02-08T13:12:40.491Z,101686.88
2023-02-08T13:15:30.113Z,101682.81
2023-02-08T13:17:59.151Z,101683.28
2023-02-08T13:20:48.078Z,101686.44
2023-02-08T13:23:22.698Z,101682.69
2023-02-08T13:26:02.623Z,101687.03
2023-02-08T13:28:30.821Z,101687.22
2023-02-08T13:31:05.838Z,101694.31
2023-02-08T13:33:59.217Z,101694.59
2023-02-08T13:36:31.894Z,101688.06
2023-02-08T13:39:02.435Z,101697.72
2023-02-08T13:41:33.770Z,101698.34
2023-02-08T13:44:07.704Z,101695.25
2023-02-08T13:46:53.469Z,101686.16
2023-02-08T13:49:44.950Z,101684.47
2023-02-08T13:52:46.961Z,101683.91
2023-02-08T13:55:37.533Z,101695.47
2023-02-08T13:58:14.861Z,101693.09
2023-02-08T14:00:55.213Z,101690.81
2023-02-08T14:03:27.467Z,101684.22
2023-02-08T14:05:59.186Z,101686.47
2023-02-08T14:08:39.703Z,101682.34
2023-02-08T14:11:19.054Z,101676.59
2023-02-08T14:14:21.102Z,101672.09
2023-02-08T14:17:04.520Z,101679.03
2023-02-08T14:19:37.474Z,101676.88
2023-02-08T14:22:12.669Z,101673.00
2023-02-08T14:24:43.998Z,101670.00
2023-02-08T14:27:42.001Z,101672.12
2023-02-08T14:30:16.456Z,101671.78
2023-02-08T14:32:47.887Z,101685.72
2023-02-08T14:35:16.102Z,101678.28
2023-02-08T14:37:45.108Z,101671.41
2023-02-08T14:40:24.805Z,101676.75
2023-02-08T14:42:53.455Z,101679.25
2023-02-08T14:45:39.570Z,101684.13
2023-02-08T14:48:31.414Z,101677.37
2023-02-08T14:51:09.209Z,101677.03
2023-02-08T14:53:49.200Z,101673.06
2023-02-08T14:56:26.947Z,101677.50
2023-02-08T14:59:13.834Z,101671.84
2023-02-08T15:01:56.599Z,101668.78
2023-02-08T15:04:25.336Z,101671.00
2023-02-08T15:07:20.341Z,101668.34
2023-02-08T15:09:48.631Z,101670.47
2023-02-08T15:12:26.398Z,101675.00
2023-02-08T15:14:55.885Z,101678.25
2023-02-08T15:17:40.845Z,101675.00
2023-02-08T15:20:19.020Z,101683.75
2023-02-08T15:22:47.212Z,101688.34
2023-02-08T15:25:25.690Z,101682.59
2023-02-08T15:27:56.866Z,101681.00
2023-02-08T15:30:36.786Z,101682.56
2023-02-08T15:33:14.780Z,101682.34
2023-02-08T15:35:43.958Z,101689.53
2023-02-08T15:38:18.582Z,101689.06
2023-02-08T15:41:07.066Z,101688.09
2023-02-08T15:43:42.681Z,101693.50
2023-02-08T15:46:23.263Z,101691.84
2023-02-08T15:48:53.744Z,101691.00
2023-02-08T15:51:24.441Z,101696.00
2023-02-08T15:53:54.351Z,101697.22
2023-02-08T15:56:36.821Z,101695.28
2023-02-08T15:59:08.599Z,101693.84
2023-02-08T16:01:37.703Z,101703.63
2023-02-08T16:04:08.169Z,101697.59
2023-02-08T16:06:48.616Z,101697.34
2023-02-08T16:09:20.031Z,101699.50
2023-02-08T16:11:50.263Z,101707.97
2023-02-08T16:14:24.218Z,101710.75
2023-02-08T16:16:57.537Z,101718.03
2023-02-08T16:19:30.770Z,101716.88
2023-02-08T16:22:14.048Z,101714.84
2023-02-08T16:24:42.550Z,101716.50
2023-02-08T16:27:26.166Z,101720.59
2023-02-08T16:29:54.541Z,101731.50
2023-02-08T16:32:33.611Z,101725.59
2023-02-08T16:35:12.423Z,101728.13
2023-02-08T16:37:40.696Z,101730.97
2023-02-08T16:40:27.865Z,101735.59
2023-02-08T16:43:15.206Z,101737.94
2023-02-08T16:45:43.681Z,101738.41
2023-02-08T16:48:33.580Z,101740.72
2023-02-08T16:51:03.075Z,101747.88
2023-02-08T16:53:41.229Z,101746.34
2023-02-08T16:56:12.896Z,101741.66
2023-02-08T16:58:40.907Z,101749.06
2023-02-08T17:01:13.160Z,101752.16
2023-02-08T17:03:41.703Z,101756.41
2023-02-08T17:06:26.864Z,101756.78
2023-02-08T17:08:57.135Z,101756.44
2023-02-08T17:11:27.687Z,101756.47
2023-02-08T17:13:56.117Z,101766.75
2023-02-08T17:16:26.478Z,101755.06
2023-02-08T17:18:54.732Z,101749.88
2023-02-08T17:21:22.996Z,101749.69
2023-02-08T17:23:50.964Z,101745.78
2023-02-08T17:26:27.649Z,101754.69
2023-02-08T17:28:56.630Z,101753.38
2023-02-08T17:31:26.243Z,101746.59
2023-02-08T17:33:54.612Z,101749.44
2023-02-08T17:36:22.694Z,101748.53
2023-02-08T17:38:51.478Z,101752.66
2023-02-08T17:41:21.161Z,101758.22
2023-02-08T17:43:56.912Z,101765.97
2023-02-08T17:46:30.627Z,101766.69
2023-02-08T17:49:02.003Z,101770.66
2023-02-08T17:51:31.562Z,101770.13
2023-02-08T17:53:59.515Z,101768.53
2023-02-08T17:56:28.766Z,101767.78
2023-02-08T17:58:59.373Z,101770.91
2023-02-08T18:01:30.414Z,101772.50
2023-02-08T18:03:59.694Z,101772.16
2023-02-08T18:06:28.904Z,101770.72
2023-02-08T18:08:56.785Z,101769.28
2023-02-08T18:11:25.092Z,101768.59
2023-02-08T18:13:54.134Z,101775.44
2023-02-08T18:16:24.675Z,101771.00
2023-02-08T18:18:57.530Z,101775.38
2023-02-08T18:21:26.135Z,101767.97
2023-02-08T18:23:55.634Z,101767.34
2023-02-08T18:26:24.791Z,101771.63
2023-02-08T18:28:53.065Z,101766.25
2023-02-08T18:31:21.492Z,101775.31
2023-02-08T18:33:50.197Z,101771.88
2023-02-08T18:36:18.914Z,101774.03
2023-02-08T18:38:48.720Z,101784.44
2023-02-08T18:41:22.422Z,101784.44
2023-02-08T18:43:50.865Z,101786.00
2023-02-08T18:46:21.342Z,101783.19
2023-02-08T18:48:50.771Z,101784.06
2023-02-08T18:51:20.350Z,101778.69
2023-02-08T18:53:51.054Z,101778.78
2023-02-08T18:56:24.318Z,101778.59
2023-02-08T18:58:53.884Z,101781.53
2023-02-08T19:01:23.821Z,101776.59
2023-02-08T19:03:52.301Z,101776.53
2023-02-08T19:06:27.389Z,101783.47
2023-02-08T19:08:57.297Z,101789.81
2023-02-08T19:11:28.605Z,101785.56
2023-02-08T19:14:01.328Z,101787.97
2023-02-08T19:16:33.456Z,101785.00
2023-02-08T19:19:01.868Z,101783.69
2023-02-08T19:21:30.923Z,101790.34
2023-02-08T19:24:03.646Z,101790.53
2023-02-08T19:26:39.750Z,101783.44
2023-02-08T19:29:15.311Z,101786.25
2023-02-08T19:31:44.740Z,101797.88
2023-02-08T19:34:12.925Z,101785.53
2023-02-08T19:36:46.817Z,101783.13
2023-02-08T19:39:16.816Z,101781.38
2023-02-08T19:41:45.688Z,101784.78
2023-02-08T19:44:16.102Z,101787.03
2023-02-08T19:46:49.669Z,101789.25
2023-02-08T19:49:18.493Z,101784.12
2023-02-08T19:51:47.646Z,101783.78
2023-02-08T19:54:18.218Z,101796.13
2023-02-08T19:56:47.269Z,101793.91
2023-02-08T19:59:27.337Z,101787.44
2023-02-08T20:01:56.886Z,101779.25
2023-02-08T20:04:25.824Z,101781.00
2023-02-08T20:06:54.059Z,101786.47
2023-02-08T20:09:22.922Z,101782.56
2023-02-08T20:12:00.115Z,101787.19
2023-02-08T20:14:31.293Z,101784.03
2023-02-08T20:17:01.118Z,101796.56
2023-02-08T20:19:31.817Z,101792.47
2023-02-08T20:22:00.142Z,101803.66
2023-02-08T20:24:28.682Z,101792.41
2023-02-08T20:26:56.484Z,101792.91
2023-02-08T20:29:26.570Z,101792.47
2023-02-08T20:31:58.266Z,101793.81
2023-02-08T20:34:27.324Z,101793.56
2023-02-08T20:37:06.718Z,101801.31
2023-02-08T20:39:36.605Z,101789.50
2023-02-08T20:42:04.974Z,101791.62
2023-02-08T20:44:32.846Z,101792.87
2023-02-08T20:47:01.589Z,101793.78
2023-02-08T20:49:32.373Z,101795.41
2023-02-08T20:52:00.692Z,101800.47
2023-02-08T20:54:29.006Z,101798.56
2023-02-08T20:56:57.131Z,101801.81
2023-02-08T20:59:25.074Z,101800.75
2023-02-08T21:01:53.360Z,101810.13
2023-02-08T21:04:23.675Z,101800.31
2023-02-08T21:06:52.330Z,101800.63
2023-02-08T21:09:21.312Z,101803.09
2023-02-08T21:11:50.121Z,101798.56
2023-02-08T21:14:21.064Z,101795.56
2023-02-08T21:16:52.005Z,101802.34
2023-02-08T21:19:20.929Z,101805.34
2023-02-08T21:21:58.180Z,101803.91
2023-02-08T21:24:27.157Z,101805.69
2023-02-08T21:26:56.892Z,101799.31
2023-02-08T21:29:25.297Z,101798.38
2023-02-08T21:31:54.771Z,101800.09
2023-02-08T21:34:23.351Z,101800.47
2023-02-08T21:36:51.253Z,101792.03
2023-02-08T21:39:19.736Z,101795.38
2023-02-08T21:41:48.617Z,101794.84
2023-02-08T21:44:16.623Z,101792.28
2023-02-08T21:46:44.543Z,101786.84
2023-02-08T21:49:31.360Z,101783.28
2023-02-08T21:52:17.844Z,101786.34
2023-02-08T21:54:46.949Z,101776.28
2023-02-08T21:57:27.059Z,101778.28
2023-02-08T21:59:58.430Z,101779.94
2023-02-08T22:02:29.180Z,101776.13
2023-02-08T22:05:22.148Z,101786.72
2023-02-08T22:07:54.029Z,101783.88
2023-02-08T22:10:24.585Z,101782.91
2023-02-08T22:12:55.435Z,101790.03
2023-02-08T22:15:26.975Z,101785.81
2023-02-08T22:17:56.268Z,101784.94
2023-02-08T22:20:24.868Z,101793.59
2023-02-08T22:22:55.107Z,101786.66
2023-02-08T22:25:24.133Z,101786.03
2023-02-08T22:27:52.544Z,101780.94
2023-02-08T22:30:20.490Z,101781.63
2023-02-08T22:32:49.409Z,101777.53
2023-02-08T22:35:18.960Z,101784.41
2023-02-08T22:37:46.959Z,101788.00
2023-02-08T22:40:14.843Z,101786.59
2023-02-08T22:42:43.296Z,101786.69
2023-02-08T22:45:11.591Z,101776.31
2023-02-08T22:47:39.583Z,101784.00
2023-02-08T22:50:08.558Z,101781.16
2023-02-08T22:52:36.658Z,101782.59
2023-02-08T22:55:05.287Z,101769.13
2023-02-08T22:57:34.963Z,101778.81
2023-02-08T23:00:05.619Z,101772.94
2023-02-08T23:02:33.985Z,101777.00
2023-02-08T23:05:01.860Z,101773.97
2023-02-08T23:07:29.746Z,101768.87
2023-02-08T23:09:58.047Z,101772.72
2023-02-08T23:12:25.947Z,101771.47
2023-02-08T23:14:53.839Z,101769.84
2023-02-08T23:17:22.175Z,101773.06
2023-02-08T23:19:52.782Z,101771.34
2023-02-08T23:22:20.669Z,101761.66
2023-02-08T23:24:49.064Z,101764.38
2023-02-08T23:27:16.955Z,101758.16
2023-02-08T23:29:44.885Z,101765.00
2023-02-08T23:32:13.158Z,101760.47
2023-02-08T23:34:41.013Z,101757.41
2023-02-08T23:37:08.856Z,101758.41
2023-02-08T23:39:37.131Z,101745.69
2023-02-08T23:42:05.898Z,101746.72
2023-02-08T23:44:33.771Z,101751.78
2023-02-08T23:47:02.150Z,101745.94
2023-02-08T23:49:30.066Z,101745.31
2023-02-08T23:51:57.861Z,101742.88
2023-02-08T23:54:26.304Z,101741.72
2023-02-08T23:56:54.395Z,101737.00
2023-02-08T23:59:22.175Z,101737.41
